Time;durP1;ratioP1;P1;durP2;ratioP2;P2;SDS_P1;SDS_P2;PMS_P1;PMS_P2;Temp;Humidity;BMP_temperature;BMP_pressure;BME280_temperature;BME280_humidity;BME280_pressure;Samples;Min_cycle;Max_cycle;Signal;HPM_P1;HPM_P2
2023/12/27 00:01:39;;;;;;;6.10;1.38;;;4.80;99.90;;;;;;6189116;23;20025;-76
2023/12/27 00:04:04;;;;;;;12.05;2.30;;;4.80;99.90;;;;;;6189371;23;20017;-76
2023/12/27 00:06:30;;;;;;;10.90;1.80;;;4.80;99.90;;;;;;6189247;23;20016;-76
2023/12/27 00:08:55;;;;;;;9.52;1.77;;;4.80;99.90;;;;;;6189024;23;20460;-76
2023/12/27 00:11:21;;;;;;;5.70;1.73;;;4.80;99.90;;;;;;6189318;23;20071;-76
2023/12/27 00:13:46;;;;;;;7.00;1.55;;;4.80;99.90;;;;;;6189388;23;20027;-76
2023/12/27 00:16:12;;;;;;;10.45;1.85;;;4.80;99.90;;;;;;6189326;23;20416;-76
2023/12/27 00:18:38;;;;;;;18.77;3.05;;;4.80;99.90;;;;;;6189301;23;20067;-76
2023/12/27 00:21:04;;;;;;;6.13;1.33;;;4.70;99.90;;;;;;6189210;23;20016;-76
2023/12/27 00:23:29;;;;;;;7.85;1.90;;;4.70;99.90;;;;;;6189158;23;20020;-76
2023/12/27 00:25:56;;;;;;;6.20;1.63;;;4.70;99.90;;;;;;6188980;23;20020;-76
2023/12/27 00:28:21;;;;;;;13.02;1.88;;;4.60;99.90;;;;;;6189064;23;20027;-76
2023/12/27 00:30:51;;;;;;;7.05;2.38;;;4.60;99.90;;;;;;6216099;23;20013;-76
2023/12/27 00:33:17;;;;;;;7.78;1.70;;;4.60;99.90;;;;;;6215731;23;20020;-76
2023/12/27 00:35:43;;;;;;;6.97;1.85;;;4.60;99.90;;;;;;6189193;23;20028;-76
2023/12/27 00:38:09;;;;;;;12.23;3.38;;;4.50;99.90;;;;;;6190940;23;20344;-76
2023/12/27 00:40:34;;;;;;;10.23;1.77;;;4.50;99.90;;;;;;6191017;23;20023;-76
2023/12/27 00:43:00;;;;;;;12.70;2.03;;;4.50;99.90;;;;;;6191089;23;20020;-76
2023/12/27 00:45:27;;;;;;;9.85;1.77;;;4.50;99.90;;;;;;6190726;23;20068;-76
2023/12/27 00:47:55;;;;;;;9.48;2.22;;;4.50;99.90;;;;;;6190757;23;20024;-76
2023/12/27 00:50:20;;;;;;;9.27;2.00;;;4.50;99.90;;;;;;6190881;23;20043;-76
2023/12/27 00:52:46;;;;;;;10.32;2.10;;;4.50;99.90;;;;;;6190936;23;20341;-76
2023/12/27 00:55:11;;;;;;;15.52;2.25;;;4.50;99.90;;;;;;6217915;23;20333;-76
2023/12/27 00:57:37;;;;;;;8.00;1.80;;;4.40;99.90;;;;;;6190868;23;20420;-76
2023/12/27 01:00:03;;;;;;;6.55;2.53;;;4.40;99.90;;;;;;6190903;23;20095;-76
2023/12/27 01:02:29;;;;;;;13.32;1.77;;;4.40;99.90;;;;;;6191747;23;20103;-76
2023/12/27 01:04:55;;;;;;;9.13;2.35;;;4.40;99.90;;;;;;6191137;23;20020;-76
2023/12/27 01:07:22;;;;;;;6.50;1.90;;;4.30;99.90;;;;;;6190632;23;20348;-76
2023/12/27 01:09:48;;;;;;;8.45;2.13;;;4.20;99.90;;;;;;6190778;23;20020;-76
2023/12/27 01:12:14;;;;;;;7.43;1.55;;;4.20;99.90;;;;;;6217637;23;20037;-76
2023/12/27 01:14:40;;;;;;;8.57;1.63;;;4.20;99.90;;;;;;6217654;23;20107;-76
2023/12/27 01:17:06;;;;;;;7.68;1.85;;;4.20;99.90;;;;;;6217263;23;20384;-76
2023/12/27 01:19:32;;;;;;;11.60;3.40;;;4.10;99.90;;;;;;6190708;23;20017;-76
2023/12/27 01:21:58;;;;;;;11.48;1.90;;;4.10;99.90;;;;;;6190755;23;20083;-76
2023/12/27 01:24:23;;;;;;;8.50;2.25;;;4.00;99.90;;;;;;6190574;23;20009;-76
2023/12/27 01:26:49;;;;;;;10.07;1.63;;;4.00;99.90;;;;;;6190574;23;20075;-76
2023/12/27 01:29:14;;;;;;;5.47;1.35;;;4.00;99.90;;;;;;6190619;23;20071;-76
2023/12/27 01:31:40;;;;;;;12.13;1.92;;;4.00;99.90;;;;;;6190574;23;20348;-76
2023/12/27 01:34:06;;;;;;;10.82;2.55;;;3.90;99.90;;;;;;6190591;23;20009;-76
2023/12/27 01:36:31;;;;;;;5.88;1.48;;;3.90;99.90;;;;;;6190500;23;20013;-76
2023/12/27 01:38:57;;;;;;;7.57;1.23;;;3.90;99.90;;;;;;6190454;23;20372;-76
2023/12/27 01:41:22;;;;;;;6.40;1.42;;;3.90;99.90;;;;;;6190555;23;20019;-76
2023/12/27 01:43:48;;;;;;;6.93;1.50;;;3.80;99.90;;;;;;6190476;23;20025;-76
2023/12/27 01:46:14;;;;;;;12.80;2.08;;;3.80;99.90;;;;;;6190190;23;20103;-76
2023/12/27 01:48:42;;;;;;;6.72;2.00;;;3.80;99.90;;;;;;6216566;23;20456;-76
2023/12/27 01:51:08;;;;;;;8.60;1.92;;;3.70;99.90;;;;;;6190343;23;20016;-76
2023/12/27 01:53:34;;;;;;;9.95;3.30;;;3.70;99.90;;;;;;6190219;23;20027;-76
2023/12/27 01:56:01;;;;;;;8.77;2.08;;;3.80;99.90;;;;;;6190335;23;20511;-76
2023/12/27 01:58:29;;;;;;;8.02;2.40;;;3.70;99.90;;;;;;6190308;23;20095;-76
2023/12/27 02:00:56;;;;;;;10.80;2.10;;;3.70;99.90;;;;;;6190203;23;20078;-76
2023/12/27 02:03:24;;;;;;;10.50;2.33;;;3.70;99.90;;;;;;6189221;23;20071;-76
2023/12/27 02:05:51;;;;;;;5.60;2.00;;;3.70;99.90;;;;;;6190190;23;20017;-76
2023/12/27 02:08:18;;;;;;;9.27;2.15;;;3.70;99.90;;;;;;6189987;23;20092;-76
2023/12/27 02:10:44;;;;;;;10.85;2.28;;;3.60;99.90;;;;;;6216862;23;20021;-76
2023/12/27 02:13:19;;;;;;;9.15;3.17;;;3.60;99.90;;;;;;6190853;23;20015;-76
2023/12/27 02:15:46;;;;;;;9.30;1.85;;;3.60;99.90;;;;;;6190918;23;20019;-76
2023/12/27 02:18:13;;;;;;;14.20;2.17;;;3.60;99.90;;;;;;6190154;23;20013;-76
2023/12/27 02:20:40;;;;;;;13.05;2.70;;;3.60;99.90;;;;;;6189964;23;20531;-76
2023/12/27 02:23:07;;;;;;;9.95;2.90;;;3.60;99.90;;;;;;6189958;23;20340;-76
2023/12/27 02:25:34;;;;;;;9.18;2.17;;;3.60;99.90;;;;;;6217186;23;20490;-76
2023/12/27 02:27:59;;;;;;;8.43;2.08;;;3.60;99.90;;;;;;6189895;23;20072;-76
2023/12/27 02:30:25;;;;;;;7.88;2.65;;;3.50;99.90;;;;;;6189952;23;20017;-76
2023/12/27 02:32:51;;;;;;;8.93;2.22;;;3.50;99.90;;;;;;6189983;23;20067;-76
2023/12/27 02:35:20;;;;;;;3.22;1.33;;;3.50;99.90;;;;;;6189950;23;20091;-76
2023/12/27 02:37:46;;;;;;;7.82;1.73;;;3.50;99.90;;;;;;6190990;23;20095;-76
2023/12/27 02:40:11;;;;;;;7.32;1.88;;;3.40;99.90;;;;;;6189844;23;20091;-76
2023/12/27 02:42:40;;;;;;;10.15;2.40;;;3.40;99.90;;;;;;6189918;23;20064;-76
2023/12/27 02:45:10;;;;;;;8.88;2.15;;;3.40;99.90;;;;;;6189548;23;20017;-76
2023/12/27 02:47:38;;;;;;;6.57;2.03;;;3.40;99.90;;;;;;6189635;23;20056;-76
2023/12/27 02:50:07;;;;;;;10.23;2.05;;;3.40;99.90;;;;;;6189692;23;20322;-76
2023/12/27 02:52:33;;;;;;;13.55;2.65;;;3.30;99.90;;;;;;6189702;23;20047;-76
2023/12/27 02:54:58;;;;;;;8.80;1.40;;;3.30;99.90;;;;;;6216625;23;20391;-76
2023/12/27 02:57:24;;;;;;;11.23;1.95;;;3.30;99.90;;;;;;6189747;23;20019;-76
2023/12/27 02:59:50;;;;;;;10.65;2.53;;;3.30;99.90;;;;;;6189747;23;20020;-76
2023/12/27 03:02:15;;;;;;;13.57;2.08;;;3.30;99.90;;;;;;6190174;23;20392;-76
2023/12/27 03:04:41;;;;;;;10.35;1.90;;;3.20;99.90;;;;;;6189701;23;20021;-76
2023/12/27 03:07:11;;;;;;;9.38;1.75;;;3.20;99.90;;;;;;6189704;23;20064;-76
2023/12/27 03:09:36;;;;;;;11.10;2.03;;;3.20;99.90;;;;;;6190511;23;20017;-76
2023/12/27 03:12:02;;;;;;;9.57;2.30;;;3.20;99.90;;;;;;6189637;23;20023;-76
2023/12/27 03:14:28;;;;;;;10.77;1.70;;;3.20;99.90;;;;;;6189647;23;20023;-76
2023/12/27 03:16:53;;;;;;;11.60;1.95;;;3.20;99.90;;;;;;6189563;23;20013;-76
2023/12/27 03:19:19;;;;;;;8.02;1.73;;;3.20;99.90;;;;;;6190177;23;20027;-76
2023/12/27 03:21:45;;;;;;;11.48;2.15;;;3.20;99.90;;;;;;6189733;23;20012;-76
2023/12/27 03:24:10;;;;;;;12.73;2.60;;;3.20;99.90;;;;;;6189541;23;20075;-76
2023/12/27 03:26:36;;;;;;;8.52;3.15;;;3.20;99.90;;;;;;6189483;23;20021;-76
2023/12/27 03:29:01;;;;;;;7.93;1.80;;;3.20;99.90;;;;;;6189591;23;20340;-76
2023/12/27 03:31:28;;;;;;;7.90;1.38;;;3.10;99.90;;;;;;6189472;23;20389;-76
2023/12/27 03:33:55;;;;;;;7.20;2.60;;;3.10;99.90;;;;;;6189398;23;20017;-76
2023/12/27 03:36:21;;;;;;;5.57;1.85;;;3.10;99.90;;;;;;6216282;23;20016;-76
2023/12/27 03:38:47;;;;;;;7.50;2.30;;;3.10;99.90;;;;;;6189441;23;20013;-76
2023/12/27 03:41:12;;;;;;;8.90;1.83;;;3.10;99.90;;;;;;6189425;23;20051;-76
2023/12/27 03:43:38;;;;;;;15.88;3.08;;;3.10;99.90;;;;;;6189455;23;20096;-76
2023/12/27 03:46:04;;;;;;;5.18;1.38;;;3.10;99.90;;;;;;6189000;23;20056;-76
2023/12/27 03:48:33;;;;;;;6.10;1.83;;;3.10;99.90;;;;;;6189403;23;20059;-76
2023/12/27 03:50:59;;;;;;;7.00;1.70;;;3.10;99.90;;;;;;6189876;23;20013;-76
2023/12/27 03:53:25;;;;;;;8.57;1.75;;;3.10;99.90;;;;;;6190162;23;20388;-76
2023/12/27 03:55:50;;;;;;;11.25;1.90;;;3.10;99.90;;;;;;6189337;23;20365;-76
2023/12/27 03:58:16;;;;;;;8.45;2.20;;;3.10;99.90;;;;;;6189430;23;20017;-76
2023/12/27 04:00:41;;;;;;;8.02;1.88;;;3.00;99.90;;;;;;6189313;23;20021;-76
2023/12/27 04:03:07;;;;;;;10.68;2.03;;;3.10;99.90;;;;;;6189379;23;20020;-76
2023/12/27 04:05:32;;;;;;;8.30;2.30;;;3.00;99.90;;;;;;6189359;23;20023;-76
2023/12/27 04:07:58;;;;;;;5.38;1.65;;;3.00;99.90;;;;;;6189204;23;20020;-76
2023/12/27 04:10:25;;;;;;;9.02;2.05;;;3.00;99.90;;;;;;6189380;23;20024;-76
2023/12/27 04:12:51;;;;;;;5.25;2.22;;;3.00;99.90;;;;;;6190831;23;20059;-75
2023/12/27 04:15:17;;;;;;;10.30;2.45;;;3.00;99.90;;;;;;6191125;23;20016;-76
2023/12/27 04:17:43;;;;;;;7.05;2.15;;;3.00;99.90;;;;;;6191129;23;20023;-76
2023/12/27 04:20:09;;;;;;;13.85;3.40;;;3.00;99.90;;;;;;6191462;23;20016;-76
2023/12/27 04:22:35;;;;;;;9.45;3.22;;;3.10;99.90;;;;;;6217700;23;20479;-75
2023/12/27 04:25:03;;;;;;;8.27;2.60;;;3.10;99.90;;;;;;6217598;23;20013;-76
2023/12/27 04:27:28;;;;;;;9.13;2.67;;;3.10;99.90;;;;;;6190970;23;20059;-76
2023/12/27 04:29:54;;;;;;;11.13;2.90;;;3.10;99.90;;;;;;6191094;23;20016;-76
2023/12/27 04:32:19;;;;;;;13.50;3.35;;;3.20;99.90;;;;;;6191128;23;20020;-76
2023/12/27 04:34:45;;;;;;;12.52;3.25;;;3.20;99.90;;;;;;6191127;23;20024;-76
2023/12/27 04:37:11;;;;;;;11.02;2.80;;;3.20;99.90;;;;;;6191087;23;20016;-76
2023/12/27 04:39:36;;;;;;;10.68;2.90;;;3.30;99.90;;;;;;6191069;23;20044;-76
2023/12/27 04:42:02;;;;;;;8.43;3.15;;;3.30;99.90;;;;;;6191045;23;20028;-76
2023/12/27 04:44:28;;;;;;;7.97;3.13;;;3.30;99.90;;;;;;6190887;23;20063;-76
2023/12/27 04:46:53;;;;;;;10.90;3.72;;;3.30;99.90;;;;;;6190744;23;20020;-76
2023/12/27 04:49:19;;;;;;;13.82;3.38;;;3.30;99.90;;;;;;6190974;23;20028;-76
2023/12/27 04:51:46;;;;;;;14.07;3.83;;;3.20;99.90;;;;;;6190912;23;20020;-76
2023/12/27 04:54:12;;;;;;;12.15;2.85;;;3.30;99.90;;;;;;6190939;23;20017;-76
2023/12/27 04:56:37;;;;;;;11.82;3.63;;;3.30;99.90;;;;;;6190846;23;20020;-76
2023/12/27 04:59:03;;;;;;;10.73;3.50;;;3.20;99.90;;;;;;6190820;23;20044;-76
2023/12/27 05:01:28;;;;;;;15.45;3.88;;;3.20;99.90;;;;;;6190814;23;20352;-76
2023/12/27 05:03:54;;;;;;;18.17;5.00;;;3.20;99.90;;;;;;6190828;23;20483;-76
2023/12/27 05:06:20;;;;;;;17.58;5.72;;;3.30;99.90;;;;;;6190789;23;20013;-76
2023/12/27 05:08:45;;;;;;;8.35;3.63;;;3.20;99.90;;;;;;6190880;23;20099;-76
2023/12/27 05:11:13;;;;;;;9.55;3.10;;;3.20;99.90;;;;;;6190802;23;20009;-76
2023/12/27 05:13:39;;;;;;;15.48;4.32;;;3.30;99.90;;;;;;6190645;23;20389;-76
2023/12/27 05:16:12;;;;;;;10.77;3.97;;;3.30;99.90;;;;;;6216388;23;20019;-76
2023/12/27 05:18:39;;;;;;;11.65;3.45;;;3.20;99.90;;;;;;6190661;23;20087;-76
2023/12/27 05:21:09;;;;;;;12.32;4.72;;;3.20;99.90;;;;;;6190727;23;20017;-76
2023/12/27 05:23:34;;;;;;;13.55;3.40;;;3.20;99.90;;;;;;6190015;23;20016;-76
2023/12/27 05:26:01;;;;;;;16.10;3.83;;;3.20;99.90;;;;;;6190351;23;20455;-76
2023/12/27 05:28:27;;;;;;;14.38;3.60;;;3.20;99.90;;;;;;6217397;23;20071;-76
2023/12/27 05:30:52;;;;;;;14.93;3.38;;;3.20;99.90;;;;;;6191229;23;20095;-76
2023/12/27 05:33:18;;;;;;;8.48;3.28;;;3.20;99.90;;;;;;6190601;23;20096;-76
2023/12/27 05:35:43;;;;;;;10.25;3.35;;;3.20;99.90;;;;;;6190500;23;20083;-76
2023/12/27 05:38:09;;;;;;;12.10;3.53;;;3.20;99.90;;;;;;6190567;23;20024;-76
2023/12/27 05:40:38;;;;;;;7.07;3.38;;;3.20;99.90;;;;;;6190452;23;20340;-76
2023/12/27 05:43:04;;;;;;;10.90;4.03;;;3.20;99.90;;;;;;6190227;23;20027;-76
2023/12/27 05:45:29;;;;;;;11.50;3.47;;;3.20;99.90;;;;;;6216950;23;20021;-76
2023/12/27 05:47:56;;;;;;;13.75;4.32;;;3.20;99.90;;;;;;6190308;23;20017;-76
2023/12/27 05:50:21;;;;;;;12.00;3.92;;;3.30;99.90;;;;;;6190336;23;20064;-76
2023/12/27 05:52:47;;;;;;;12.68;3.85;;;3.20;99.90;;;;;;6190413;23;20017;-76
2023/12/27 05:55:13;;;;;;;11.10;3.80;;;3.30;99.90;;;;;;6190263;23;20021;-76
2023/12/27 05:57:39;;;;;;;16.08;3.42;;;3.30;99.90;;;;;;6189769;23;20108;-76
2023/12/27 06:00:06;;;;;;;10.85;2.90;;;3.20;99.90;;;;;;6190281;23;20024;-76
2023/12/27 06:02:32;;;;;;;12.82;4.15;;;3.20;99.90;;;;;;6190335;23;20074;-76
2023/12/27 06:04:58;;;;;;;13.90;3.53;;;3.30;99.90;;;;;;6190243;23;20051;-76
2023/12/27 06:07:24;;;;;;;13.63;4.30;;;3.30;99.90;;;;;;6190166;23;20076;-76
2023/12/27 06:09:50;;;;;;;13.15;3.33;;;3.20;99.90;;;;;;6216674;23;20393;-76
2023/12/27 06:12:15;;;;;;;11.50;3.13;;;3.30;99.90;;;;;;6216672;23;20051;-76
2023/12/27 06:14:41;;;;;;;15.10;3.67;;;3.30;99.90;;;;;;6190147;23;20031;-76
2023/12/27 06:17:07;;;;;;;18.33;4.03;;;3.30;99.90;;;;;;6217057;23;20421;-76
2023/12/27 06:19:35;;;;;;;12.05;3.25;;;3.30;99.90;;;;;;6190159;23;20456;-75
2023/12/27 06:22:00;;;;;;;17.30;3.47;;;3.30;99.90;;;;;;6189994;23;20051;-76
2023/12/27 06:24:26;;;;;;;8.68;4.05;;;3.30;99.90;;;;;;6190038;23;20021;-76
2023/12/27 06:26:51;;;;;;;11.18;2.95;;;3.30;99.90;;;;;;6189957;23;20096;-76
2023/12/27 06:29:18;;;;;;;14.43;3.90;;;3.30;99.90;;;;;;6190054;23;20016;-76
2023/12/27 06:31:44;;;;;;;13.25;3.20;;;3.30;99.90;;;;;;6190000;23;20080;-76
2023/12/27 06:34:09;;;;;;;17.27;3.30;;;3.30;99.90;;;;;;6189736;23;20063;-76
2023/12/27 06:36:35;;;;;;;10.45;2.38;;;3.30;99.90;;;;;;6190058;23;20044;-76
2023/12/27 06:39:01;;;;;;;11.55;3.35;;;3.30;99.90;;;;;;6189779;23;20032;-76
2023/12/27 06:41:27;;;;;;;13.80;3.40;;;3.30;99.90;;;;;;6189939;23;20017;-76
2023/12/27 06:43:53;;;;;;;9.85;3.15;;;3.30;99.90;;;;;;6189897;23;20091;-76
2023/12/27 06:46:21;;;;;;;8.77;3.13;;;3.30;99.90;;;;;;6189541;23;20499;-76
2023/12/27 06:48:54;;;;;;;11.20;3.03;;;3.30;99.90;;;;;;6190113;23;20348;-76
2023/12/27 06:51:19;;;;;;;9.20;2.45;;;3.30;99.90;;;;;;6189765;23;20517;-76
2023/12/27 06:53:45;;;;;;;9.25;3.10;;;3.30;99.90;;;;;;6189751;23;20025;-76
2023/12/27 06:56:12;;;;;;;10.35;3.30;;;3.30;99.90;;;;;;6189797;23;20060;-76
2023/12/27 06:58:38;;;;;;;10.07;2.70;;;3.30;99.90;;;;;;6189747;23;20452;-76
2023/12/27 07:01:04;;;;;;;10.02;3.20;;;3.30;99.90;;;;;;6216570;23;20017;-76
2023/12/27 07:03:30;;;;;;;13.23;2.92;;;3.40;99.90;;;;;;6216601;23;20016;-76
2023/12/27 07:05:55;;;;;;;7.18;2.50;;;3.40;99.90;;;;;;6190181;23;20025;-76
2023/12/27 07:08:21;;;;;;;11.48;2.25;;;3.40;99.90;;;;;;6189608;23;20388;-76
2023/12/27 07:10:52;;;;;;;13.98;2.33;;;3.50;99.90;;;;;;6189730;23;20318;-76
2023/12/27 07:13:18;;;;;;;6.63;1.95;;;3.50;99.90;;;;;;6189596;23;20024;-76
2023/12/27 07:15:44;;;;;;;16.27;2.17;;;3.50;99.90;;;;;;6189636;23;20035;-76
2023/12/27 07:18:09;;;;;;;8.27;2.53;;;3.60;99.90;;;;;;6189923;23;20025;-76
2023/12/27 07:20:35;;;;;;;7.97;2.20;;;3.60;99.90;;;;;;6216096;23;20099;-76
2023/12/27 07:23:01;;;;;;;7.88;2.10;;;3.60;99.90;;;;;;6216483;23;20008;-76
2023/12/27 07:25:26;;;;;;;10.70;3.17;;;3.60;99.90;;;;;;6189529;23;20519;-76
2023/12/27 07:27:52;;;;;;;11.45;2.20;;;3.70;99.90;;;;;;6215994;23;20024;-76
2023/12/27 07:30:18;;;;;;;10.35;1.75;;;3.70;99.90;;;;;;6215975;23;20012;-76
2023/12/27 07:32:43;;;;;;;12.88;2.63;;;3.70;99.90;;;;;;6189735;23;20043;-76
2023/12/27 07:35:09;;;;;;;9.35;1.70;;;3.80;99.90;;;;;;6215990;23;20353;-76
2023/12/27 07:37:35;;;;;;;11.93;2.70;;;3.80;99.90;;;;;;6216276;23;20024;-76
2023/12/27 07:40:00;;;;;;;12.93;2.17;;;3.90;99.90;;;;;;6215968;23;20016;-76
2023/12/27 07:42:26;;;;;;;12.57;3.40;;;3.90;99.90;;;;;;6216309;23;20023;-76
2023/12/27 07:44:53;;;;;;;9.85;1.40;;;4.00;99.90;;;;;;6189380;23;20048;-76
2023/12/27 07:47:20;;;;;;;6.88;1.38;;;4.00;99.90;;;;;;6188844;23;20084;-76
2023/12/27 07:49:45;;;;;;;9.68;2.40;;;4.00;99.90;;;;;;6189350;23;20088;-76
2023/12/27 07:52:11;;;;;;;12.45;2.78;;;4.00;99.90;;;;;;6189382;23;20106;-76
2023/12/27 07:54:37;;;;;;;10.18;2.47;;;4.10;99.90;;;;;;6189364;23;20080;-76
2023/12/27 07:57:03;;;;;;;10.23;2.65;;;4.10;99.90;;;;;;6189340;23;20017;-76
2023/12/27 07:59:30;;;;;;;12.38;2.72;;;4.10;99.90;;;;;;6189280;23;20092;-76
2023/12/27 08:01:56;;;;;;;12.07;3.10;;;4.20;99.90;;;;;;6189353;23;20024;-76
2023/12/27 08:04:22;;;;;;;15.07;2.88;;;4.20;99.90;;;;;;6189272;23;20020;-76
2023/12/27 08:06:49;;;;;;;12.55;2.90;;;4.20;99.90;;;;;;6189322;23;20044;-76
2023/12/27 08:09:15;;;;;;;13.90;3.15;;;4.30;99.90;;;;;;6189183;23;20028;-76
2023/12/27 08:11:41;;;;;;;17.15;3.03;;;4.30;99.90;;;;;;6188350;23;20027;-76
2023/12/27 08:14:06;;;;;;;7.88;2.20;;;4.30;99.90;;;;;;6215790;23;20017;-76
2023/12/27 08:16:32;;;;;;;9.05;2.00;;;4.30;99.90;;;;;;6189075;23;20095;-76
2023/12/27 08:18:57;;;;;;;8.50;2.00;;;4.30;99.90;;;;;;6189149;23;20437;-76
2023/12/27 08:21:23;;;;;;;7.63;1.60;;;4.30;99.90;;;;;;6189248;23;20433;-76
2023/12/27 08:23:49;;;;;;;9.32;2.17;;;4.30;99.90;;;;;;6215671;23;20337;-76
2023/12/27 08:26:14;;;;;;;11.95;2.00;;;4.30;99.90;;;;;;6215963;23;20437;-76
2023/12/27 08:28:40;;;;;;;5.25;1.33;;;4.40;99.90;;;;;;6215665;23;20028;-76
2023/12/27 08:31:06;;;;;;;8.90;1.58;;;4.40;99.90;;;;;;6189121;23;20055;-76
2023/12/27 08:33:35;;;;;;;8.65;2.03;;;4.40;99.90;;;;;;6215918;23;20013;-76
2023/12/27 08:36:01;;;;;;;11.27;1.60;;;4.50;99.90;;;;;;6189058;23;20012;-76
2023/12/27 08:38:28;;;;;;;7.43;1.42;;;4.50;99.90;;;;;;6189076;23;20017;-76
2023/12/27 08:40:57;;;;;;;11.30;1.83;;;4.50;99.90;;;;;;6189068;23;20020;-76
2023/12/27 08:43:29;;;;;;;9.57;1.65;;;4.50;99.90;;;;;;6189049;23;20490;-76
2023/12/27 08:45:55;;;;;;;8.60;2.00;;;4.60;99.90;;;;;;6188840;23;20016;-76
2023/12/27 08:48:24;;;;;;;12.35;1.80;;;4.60;99.90;;;;;;6189037;23;20460;-77
2023/12/27 08:50:52;;;;;;;4.25;1.33;;;4.60;99.90;;;;;;6189030;23;20047;-77
2023/12/27 08:53:18;;;;;;;5.93;1.77;;;4.60;99.90;;;;;;6189116;23;20447;-77
2023/12/27 08:55:43;;;;;;;9.73;1.50;;;4.60;99.90;;;;;;6189125;23;20012;-76
2023/12/27 08:58:11;;;;;;;5.70;1.73;;;4.60;99.90;;;;;;6189869;23;20044;-77
2023/12/27 09:00:36;;;;;;;10.30;1.88;;;4.60;99.90;;;;;;6190734;23;20023;-76
2023/12/27 09:03:03;;;;;;;7.75;2.05;;;4.60;99.90;;;;;;6190811;23;20017;-77
2023/12/27 09:05:28;;;;;;;7.85;1.92;;;4.60;99.90;;;;;;6190792;23;20088;-77
2023/12/27 09:07:54;;;;;;;16.58;3.05;;;4.70;99.90;;;;;;6190678;23;20048;-77
2023/12/27 09:10:20;;;;;;;8.20;2.55;;;4.60;99.90;;;;;;6190659;23;20020;-78
2023/12/27 09:12:45;;;;;;;9.38;2.72;;;4.70;99.90;;;;;;6190533;23;20020;-79
2023/12/27 09:15:13;;;;;;;12.88;2.95;;;4.70;99.90;;;;;;6190628;23;20429;-78
2023/12/27 09:17:39;;;;;;;8.55;2.42;;;4.70;99.90;;;;;;6217444;23;20063;-79
2023/12/27 09:20:07;;;;;;;8.85;2.40;;;4.70;99.90;;;;;;6190549;23;20385;-79
2023/12/27 09:22:34;;;;;;;11.15;2.67;;;4.70;99.90;;;;;;6190606;23;20440;-79
2023/12/27 09:24:59;;;;;;;8.38;3.13;;;4.70;99.90;;;;;;6217511;23;20008;-78
2023/12/27 09:27:26;;;;;;;10.40;2.92;;;4.70;99.90;;;;;;6190414;23;20031;-78
2023/12/27 09:29:52;;;;;;;13.93;3.28;;;4.70;99.90;;;;;;6190392;23;20016;-77
2023/12/27 09:32:18;;;;;;;13.52;3.47;;;4.80;99.90;;;;;;6217134;23;20087;-77
2023/12/27 09:34:43;;;;;;;12.18;2.90;;;4.80;99.90;;;;;;6217644;23;20094;-77
2023/12/27 09:37:09;;;;;;;9.35;4.10;;;4.80;99.90;;;;;;6190390;23;20459;-80
2023/12/27 09:39:35;;;;;;;12.05;2.65;;;4.80;99.90;;;;;;6190449;23;20029;-78
2023/12/27 09:42:01;;;;;;;10.02;3.00;;;4.80;99.90;;;;;;6217257;23;20040;-78
2023/12/27 09:44:27;;;;;;;10.40;3.13;;;4.80;99.90;;;;;;6217282;23;20369;-78
2023/12/27 09:46:55;;;;;;;8.65;2.70;;;4.80;99.90;;;;;;6216668;23;20017;-78
2023/12/27 09:49:25;;;;;;;7.72;2.53;;;4.80;99.90;;;;;;6190283;23;20027;-77
2023/12/27 09:51:52;;;;;;;12.90;3.38;;;4.80;99.90;;;;;;6217310;23;20019;-77
2023/12/27 09:54:20;;;;;;;10.25;2.50;;;4.70;99.90;;;;;;6190310;23;20052;-78
2023/12/27 09:56:47;;;;;;;11.13;2.83;;;4.80;99.90;;;;;;6190115;23;20028;-78
2023/12/27 09:59:19;;;;;;;12.38;2.92;;;4.70;99.90;;;;;;6216693;23;20330;-78
2023/12/27 10:01:49;;;;;;;12.03;3.93;;;4.80;99.90;;;;;;6190257;23;20337;-78
2023/12/27 10:04:58;;;;;;;14.93;3.08;;;4.80;99.90;;;;;;6190246;23;20794;-77
2023/12/27 10:07:25;;;;;;;11.32;3.05;;;4.70;99.90;;;;;;6160272;23;20020;-77
2023/12/27 10:09:52;;;;;;;13.02;3.42;;;4.80;99.90;;;;;;6189827;23;20437;-78
2023/12/27 10:12:20;;;;;;;9.82;3.58;;;4.80;99.90;;;;;;6190147;23;20021;-78
2023/12/27 10:14:47;;;;;;;18.38;4.32;;;4.80;99.90;;;;;;6190024;23;20019;-78
2023/12/27 10:17:13;;;;;;;13.10;3.80;;;4.90;99.90;;;;;;6190087;23;20555;-78
2023/12/27 10:19:43;;;;;;;18.80;3.80;;;4.80;99.90;;;;;;6190021;23;20040;-78
2023/12/27 10:22:10;;;;;;;15.38;5.35;;;4.90;99.90;;;;;;6189890;23;20029;-78
2023/12/27 10:24:36;;;;;;;16.23;5.38;;;4.90;99.90;;;;;;6190006;23;20044;-78
2023/12/27 10:27:03;;;;;;;18.98;4.75;;;5.00;99.90;;;;;;6189886;23;20020;-78
2023/12/27 10:29:31;;;;;;;12.25;3.40;;;5.00;99.90;;;;;;6187599;23;20044;-77
2023/12/27 10:31:57;;;;;;;16.42;3.42;;;5.00;99.90;;;;;;6189350;23;20013;-77
2023/12/27 10:34:23;;;;;;;13.35;3.28;;;5.00;99.90;;;;;;6189705;23;20036;-77
2023/12/27 10:36:50;;;;;;;10.55;3.80;;;5.00;99.90;;;;;;6189610;23;20013;-77
2023/12/27 10:39:18;;;;;;;10.20;3.88;;;5.00;99.90;;;;;;6187354;23;20009;-77
2023/12/27 10:41:44;;;;;;;15.95;4.47;;;5.00;99.90;;;;;;6187933;23;20139;-77
2023/12/27 10:44:11;;;;;;;14.15;4.03;;;5.10;99.90;;;;;;6189742;23;20013;-77
2023/12/27 10:46:39;;;;;;;13.32;4.18;;;5.10;99.90;;;;;;6189316;23;20016;-76
2023/12/27 10:49:05;;;;;;;12.65;4.05;;;5.10;99.90;;;;;;6188803;23;20029;-79
2023/12/27 10:51:37;;;;;;;17.25;4.88;;;5.10;99.90;;;;;;6187206;23;20345;-80
2023/12/27 10:54:03;;;;;;;11.93;3.85;;;5.10;99.90;;;;;;6216164;23;20076;-79
2023/12/27 10:56:37;;;;;;;16.75;5.30;;;5.10;99.90;;;;;;6189573;23;20013;-80
2023/12/27 10:59:04;;;;;;;10.88;3.75;;;5.10;99.90;;;;;;6189217;23;20100;-80
2023/12/27 11:01:35;;;;;;;17.23;5.85;;;5.20;99.90;;;;;;6189328;23;20075;-80
2023/12/27 11:04:08;;;;;;;26.73;9.13;;;5.20;99.90;;;;;;6216144;23;20064;-80
2023/12/27 11:06:38;;;;;;;22.67;6.53;;;5.20;99.90;;;;;;6189205;23;20015;-80
2023/12/27 11:09:07;;;;;;;14.43;5.68;;;5.30;99.90;;;;;;6189253;23;20071;-80
2023/12/27 11:11:40;;;;;;;20.23;7.10;;;5.30;99.90;;;;;;6189405;23;20036;-77
2023/12/27 11:14:12;;;;;;;14.52;5.50;;;5.30;99.90;;;;;;6216325;23;20058;-77
2023/12/27 11:16:39;;;;;;;13.63;5.50;;;5.40;99.90;;;;;;6189318;23;20021;-80
2023/12/27 11:19:06;;;;;;;21.65;6.55;;;5.40;99.90;;;;;;6188265;23;20087;-80
2023/12/27 11:21:36;;;;;;;14.40;6.10;;;5.30;99.90;;;;;;6188508;23;20020;-80
2023/12/27 11:24:04;;;;;;;15.13;5.50;;;5.30;99.90;;;;;;6215870;23;20025;-80
2023/12/27 11:26:33;;;;;;;17.90;5.18;;;5.30;99.90;;;;;;6189092;23;20096;-80
2023/12/27 11:29:07;;;;;;;12.05;4.75;;;5.30;99.90;;;;;;6189285;23;20048;-80
2023/12/27 11:31:37;;;;;;;12.85;5.20;;;5.30;99.90;;;;;;6215819;23;20020;-80
2023/12/27 11:34:04;;;;;;;15.80;5.90;;;5.40;99.90;;;;;;6189272;23;20341;-80
2023/12/27 11:36:29;;;;;;;15.77;5.97;;;5.30;99.90;;;;;;6188902;23;20092;-80
2023/12/27 11:38:55;;;;;;;18.17;7.72;;;5.40;99.90;;;;;;6189170;23;20117;-80
2023/12/27 11:41:21;;;;;;;14.27;5.40;;;5.30;99.90;;;;;;6215715;23;20404;-78
2023/12/27 11:44:03;;;;;;;15.13;5.97;;;5.30;99.90;;;;;;6215737;23;20436;-79
2023/12/27 11:46:32;;;;;;;17.73;6.05;;;5.30;99.90;;;;;;6188816;23;20092;-80
2023/12/27 11:49:00;;;;;;;15.85;5.82;;;5.40;99.90;;;;;;6189545;23;20027;-77
2023/12/27 11:51:29;;;;;;;16.98;5.88;;;5.40;99.90;;;;;;6216048;23;20021;-76
2023/12/27 11:53:59;;;;;;;14.25;5.68;;;5.40;99.90;;;;;;6215725;23;20405;-76
2023/12/27 11:56:31;;;;;;;15.68;6.18;;;5.40;99.90;;;;;;6189311;23;20021;-76
2023/12/27 11:59:01;;;;;;;17.30;6.25;;;5.30;99.90;;;;;;6189287;23;20437;-76
2023/12/27 12:01:35;;;;;;;18.05;7.82;;;5.30;99.90;;;;;;6215842;23;20549;-76
2023/12/27 12:04:06;;;;;;;17.52;6.53;;;5.30;99.90;;;;;;6189094;23;20023;-78
2023/12/27 12:06:45;;;;;;;20.70;6.88;;;5.30;99.90;;;;;;6189189;23;20024;-77
2023/12/27 12:09:12;;;;;;;19.27;7.22;;;5.30;99.90;;;;;;6189278;23;20028;-78
2023/12/27 12:11:40;;;;;;;20.48;7.05;;;5.30;99.90;;;;;;6189170;23;20441;-79
2023/12/27 12:14:06;;;;;;;19.70;7.22;;;5.30;99.90;;;;;;6189171;23;20092;-77
2023/12/27 12:16:33;;;;;;;15.90;8.30;;;5.30;99.90;;;;;;6189079;23;20047;-76
2023/12/27 12:19:00;;;;;;;16.38;6.30;;;5.30;99.90;;;;;;6189299;23;20021;-76
2023/12/27 12:21:28;;;;;;;23.88;9.27;;;5.40;99.90;;;;;;6189317;23;20021;-76
2023/12/27 12:23:53;;;;;;;18.70;7.22;;;5.30;99.90;;;;;;6188075;23;20082;-75
2023/12/27 12:26:19;;;;;;;30.65;10.50;;;5.30;99.90;;;;;;6188939;23;20091;-77
2023/12/27 12:28:55;;;;;;;21.52;9.32;;;5.30;99.90;;;;;;6189047;23;20016;-77
2023/12/27 12:31:21;;;;;;;27.73;11.50;;;5.40;99.90;;;;;;6188991;23;20064;-77
2023/12/27 12:33:46;;;;;;;26.02;10.45;;;5.30;99.90;;;;;;6190394;23;20055;-78
2023/12/27 12:36:12;;;;;;;26.10;8.98;;;5.30;99.90;;;;;;6190938;23;20023;-78
2023/12/27 12:38:39;;;;;;;24.17;11.27;;;5.30;99.90;;;;;;6190769;23;20031;-77
2023/12/27 12:41:04;;;;;;;22.00;9.77;;;5.40;99.90;;;;;;6190728;23;20028;-78
2023/12/27 12:43:31;;;;;;;21.98;8.85;;;5.30;99.90;;;;;;6190816;23;20021;-78
2023/12/27 12:46:01;;;;;;;19.52;8.82;;;5.40;99.90;;;;;;6190295;23;20024;-79
2023/12/27 12:48:27;;;;;;;20.85;10.00;;;5.40;99.90;;;;;;6190631;23;20352;-76